sensor_id;sensor_type;location;lat;lon;timestamp;temperature;humidity
41116;DHT22;26861;51.824;4.682;2023-11-21T00:01:06;17.20;92.10
41116;DHT22;26861;51.824;4.682;2023-11-21T00:03:34;18.60;92.10
41116;DHT22;26861;51.824;4.682;2023-11-21T00:05:59;17.20;92.10
41116;DHT22;26861;51.824;4.682;2023-11-21T00:08:25;17.30;92.00
41116;DHT22;26861;51.824;4.682;2023-11-21T00:10:51;17.10;92.00
41116;DHT22;26861;51.824;4.682;2023-11-21T00:13:17;17.20;92.10
41116;DHT22;26861;51.824;4.682;2023-11-21T00:15:43;17.00;92.10
41116;DHT22;26861;51.824;4.682;2023-11-21T00:18:08;17.20;92.20
41116;DHT22;26861;51.824;4.682;2023-11-21T00:20:34;18.50;92.40
41116;DHT22;26861;51.824;4.682;2023-11-21T00:23:00;16.80;91.90
41116;DHT22;26861;51.824;4.682;2023-11-21T00:27:52;17.20;89.60
41116;DHT22;26861;51.824;4.682;2023-11-21T00:30:17;17.10;92.10
41116;DHT22;26861;51.824;4.682;2023-11-21T00:32:43;17.20;91.90
41116;DHT22;26861;51.824;4.682;2023-11-21T00:35:08;17.20;92.10
41116;DHT22;26861;51.824;4.682;2023-11-21T00:37:34;17.20;91.80
41116;DHT22;26861;51.824;4.682;2023-11-21T00:39:59;17.20;92.10
41116;DHT22;26861;51.824;4.682;2023-11-21T00:42:25;17.40;92.10
41116;DHT22;26861;51.824;4.682;2023-11-21T00:44:50;17.30;92.10
41116;DHT22;26861;51.824;4.682;2023-11-21T00:47:16;17.10;92.00
41116;DHT22;26861;51.824;4.682;2023-11-21T00:49:41;17.30;92.10
41116;DHT22;26861;51.824;4.682;2023-11-21T00:52:07;17.30;92.10
41116;DHT22;26861;51.824;4.682;2023-11-21T00:54:32;17.20;92.10
41116;DHT22;26861;51.824;4.682;2023-11-21T00:56:59;17.20;91.90
41116;DHT22;26861;51.824;4.682;2023-11-21T00:59:24;17.20;92.20
41116;DHT22;26861;51.824;4.682;2023-11-21T01:01:50;17.20;91.90
41116;DHT22;26861;51.824;4.682;2023-11-21T01:04:15;17.30;92.20
41116;DHT22;26861;51.824;4.682;2023-11-21T01:06:41;17.30;92.00
41116;DHT22;26861;51.824;4.682;2023-11-21T01:09:06;17.30;92.20
41116;DHT22;26861;51.824;4.682;2023-11-21T01:11:36;17.40;92.10
41116;DHT22;26861;51.824;4.682;2023-11-21T01:14:03;17.20;89.80
41116;DHT22;26861;51.824;4.682;2023-11-21T01:16:29;17.30;92.00
41116;DHT22;26861;51.824;4.682;2023-11-21T01:18:55;17.30;92.00
41116;DHT22;26861;51.824;4.682;2023-11-21T01:21:20;17.40;92.10
41116;DHT22;26861;51.824;4.682;2023-11-21T01:23:46;17.40;91.90
41116;DHT22;26861;51.824;4.682;2023-11-21T01:26:12;17.20;92.10
41116;DHT22;26861;51.824;4.682;2023-11-21T01:28:38;17.30;92.10
41116;DHT22;26861;51.824;4.682;2023-11-21T01:31:04;17.30;92.10
41116;DHT22;26861;51.824;4.682;2023-11-21T01:33:29;17.20;91.80
41116;DHT22;26861;51.824;4.682;2023-11-21T01:35:55;17.30;92.20
41116;DHT22;26861;51.824;4.682;2023-11-21T01:38:21;17.20;92.00
41116;DHT22;26861;51.824;4.682;2023-11-21T01:40:47;17.30;92.00
41116;DHT22;26861;51.824;4.682;2023-11-21T01:43:13;17.20;92.00
41116;DHT22;26861;51.824;4.682;2023-11-21T01:45:38;17.20;92.40
41116;DHT22;26861;51.824;4.682;2023-11-21T01:48:04;17.20;91.90
41116;DHT22;26861;51.824;4.682;2023-11-21T01:50:32;17.30;92.20
41116;DHT22;26861;51.824;4.682;2023-11-21T01:52:58;17.30;92.20
41116;DHT22;26861;51.824;4.682;2023-11-21T01:55:24;16.80;92.10
41116;DHT22;26861;51.824;4.682;2023-11-21T01:57:50;17.30;92.10
41116;DHT22;26861;51.824;4.682;2023-11-21T02:00:16;17.30;92.10
41116;DHT22;26861;51.824;4.682;2023-11-21T02:02:48;17.30;91.90
41116;DHT22;26861;51.824;4.682;2023-11-21T02:05:17;17.30;89.80
41116;DHT22;26861;51.824;4.682;2023-11-21T02:07:47;17.30;89.50
41116;DHT22;26861;51.824;4.682;2023-11-21T02:10:17;17.30;92.10
41116;DHT22;26861;51.824;4.682;2023-11-21T02:12:48;17.20;92.20
41116;DHT22;26861;51.824;4.682;2023-11-21T02:15:15;17.20;92.30
41116;DHT22;26861;51.824;4.682;2023-11-21T02:17:50;17.30;92.30
41116;DHT22;26861;51.824;4.682;2023-11-21T02:20:19;17.20;92.40
41116;DHT22;26861;51.824;4.682;2023-11-21T02:22:56;17.30;92.40
41116;DHT22;26861;51.824;4.682;2023-11-21T02:27:51;17.30;92.20
41116;DHT22;26861;51.824;4.682;2023-11-21T02:30:17;17.20;92.20
41116;DHT22;26861;51.824;4.682;2023-11-21T02:32:44;17.30;92.30
41116;DHT22;26861;51.824;4.682;2023-11-21T02:35:10;17.30;92.40
41116;DHT22;26861;51.824;4.682;2023-11-21T02:37:37;17.30;92.60
41116;DHT22;26861;51.824;4.682;2023-11-21T02:40:04;17.30;92.50
41116;DHT22;26861;51.824;4.682;2023-11-21T02:42:32;17.30;91.40
41116;DHT22;26861;51.824;4.682;2023-11-21T02:44:58;17.30;92.40
41116;DHT22;26861;51.824;4.682;2023-11-21T02:47:23;17.30;92.20
41116;DHT22;26861;51.824;4.682;2023-11-21T02:49:49;17.30;92.40
41116;DHT22;26861;51.824;4.682;2023-11-21T02:52:15;17.40;92.40
41116;DHT22;26861;51.824;4.682;2023-11-21T02:54:41;17.20;92.40
41116;DHT22;26861;51.824;4.682;2023-11-21T02:57:08;17.30;92.40
41116;DHT22;26861;51.824;4.682;2023-11-21T02:59:33;17.30;92.50
41116;DHT22;26861;51.824;4.682;2023-11-21T03:02:00;17.20;92.20
41116;DHT22;26861;51.824;4.682;2023-11-21T03:04:25;17.30;92.30
41116;DHT22;26861;51.824;4.682;2023-11-21T03:06:51;17.40;92.40
41116;DHT22;26861;51.824;4.682;2023-11-21T03:09:17;17.40;92.50
41116;DHT22;26861;51.824;4.682;2023-11-21T03:11:42;17.30;92.40
41116;DHT22;26861;51.824;4.682;2023-11-21T03:14:07;17.40;92.50
41116;DHT22;26861;51.824;4.682;2023-11-21T03:16:33;17.30;92.50
41116;DHT22;26861;51.824;4.682;2023-11-21T03:18:58;17.30;92.60
41116;DHT22;26861;51.824;4.682;2023-11-21T03:21:24;17.30;92.50
41116;DHT22;26861;51.824;4.682;2023-11-21T03:23:50;17.30;92.60
41116;DHT22;26861;51.824;4.682;2023-11-21T03:26:15;17.30;92.60
41116;DHT22;26861;51.824;4.682;2023-11-21T03:28:41;17.30;92.40
41116;DHT22;26861;51.824;4.682;2023-11-21T03:31:07;17.30;92.80
41116;DHT22;26861;51.824;4.682;2023-11-21T03:33:34;17.30;92.50
41116;DHT22;26861;51.824;4.682;2023-11-21T03:36:00;17.30;92.50
41116;DHT22;26861;51.824;4.682;2023-11-21T03:38:26;17.40;92.60
41116;DHT22;26861;51.824;4.682;2023-11-21T03:40:51;17.30;92.50
41116;DHT22;26861;51.824;4.682;2023-11-21T03:43:17;17.30;92.50
41116;DHT22;26861;51.824;4.682;2023-11-21T03:45:42;17.40;92.50
41116;DHT22;26861;51.824;4.682;2023-11-21T03:48:08;17.30;92.20
41116;DHT22;26861;51.824;4.682;2023-11-21T03:50:34;17.30;92.50
41116;DHT22;26861;51.824;4.682;2023-11-21T03:53:00;17.30;92.60
41116;DHT22;26861;51.824;4.682;2023-11-21T03:55:25;17.30;92.50
41116;DHT22;26861;51.824;4.682;2023-11-21T03:57:51;17.30;92.40
41116;DHT22;26861;51.824;4.682;2023-11-21T04:00:17;17.30;92.50
41116;DHT22;26861;51.824;4.682;2023-11-21T04:02:42;17.20;92.40
41116;DHT22;26861;51.824;4.682;2023-11-21T04:05:08;17.30;92.60
41116;DHT22;26861;51.824;4.682;2023-11-21T04:07:34;17.20;92.40
41116;DHT22;26861;51.824;4.682;2023-11-21T04:10:00;17.30;92.40
41116;DHT22;26861;51.824;4.682;2023-11-21T04:12:25;17.30;92.50
41116;DHT22;26861;51.824;4.682;2023-11-21T04:14:51;17.30;92.60
41116;DHT22;26861;51.824;4.682;2023-11-21T04:17:19;17.30;92.50
41116;DHT22;26861;51.824;4.682;2023-11-21T04:19:45;17.50;90.40
41116;DHT22;26861;51.824;4.682;2023-11-21T04:22:11;17.30;92.60
41116;DHT22;26861;51.824;4.682;2023-11-21T04:24:37;17.30;92.60
41116;DHT22;26861;51.824;4.682;2023-11-21T04:27:02;17.20;92.40
41116;DHT22;26861;51.824;4.682;2023-11-21T04:29:28;17.40;92.40
41116;DHT22;26861;51.824;4.682;2023-11-21T04:31:53;17.30;92.40
41116;DHT22;26861;51.824;4.682;2023-11-21T04:34:19;17.30;92.60
41116;DHT22;26861;51.824;4.682;2023-11-21T04:36:44;17.30;92.50
41116;DHT22;26861;51.824;4.682;2023-11-21T04:39:10;17.30;92.60
41116;DHT22;26861;51.824;4.682;2023-11-21T04:41:36;17.30;92.40
41116;DHT22;26861;51.824;4.682;2023-11-21T04:44:05;17.30;92.50
41116;DHT22;26861;51.824;4.682;2023-11-21T04:46:30;17.30;92.20
41116;DHT22;26861;51.824;4.682;2023-11-21T04:48:57;16.80;92.30
41116;DHT22;26861;51.824;4.682;2023-11-21T04:51:23;17.30;92.50
41116;DHT22;26861;51.824;4.682;2023-11-21T04:53:49;17.30;92.60
41116;DHT22;26861;51.824;4.682;2023-11-21T04:56:16;17.30;92.50
41116;DHT22;26861;51.824;4.682;2023-11-21T04:58:41;17.40;92.70
41116;DHT22;26861;51.824;4.682;2023-11-21T05:01:07;17.40;92.60
41116;DHT22;26861;51.824;4.682;2023-11-21T05:03:34;17.30;92.40
41116;DHT22;26861;51.824;4.682;2023-11-21T05:06:00;17.40;92.60
41116;DHT22;26861;51.824;4.682;2023-11-21T05:08:26;17.30;92.60
41116;DHT22;26861;51.824;4.682;2023-11-21T05:10:52;17.30;92.70
41116;DHT22;26861;51.824;4.682;2023-11-21T05:13:19;17.70;92.50
41116;DHT22;26861;51.824;4.682;2023-11-21T05:15:45;17.30;92.80
41116;DHT22;26861;51.824;4.682;2023-11-21T05:18:11;17.40;92.60
41116;DHT22;26861;51.824;4.682;2023-11-21T05:20:39;17.40;92.70
41116;DHT22;26861;51.824;4.682;2023-11-21T05:23:06;17.30;92.70
41116;DHT22;26861;51.824;4.682;2023-11-21T05:25:33;17.40;92.80
41116;DHT22;26861;51.824;4.682;2023-11-21T05:27:59;17.40;92.60
41116;DHT22;26861;51.824;4.682;2023-11-21T05:30:27;17.30;92.80
41116;DHT22;26861;51.824;4.682;2023-11-21T05:32:53;17.30;92.60
41116;DHT22;26861;51.824;4.682;2023-11-21T05:35:19;17.40;92.90
41116;DHT22;26861;51.824;4.682;2023-11-21T05:37:45;17.30;92.80
41116;DHT22;26861;51.824;4.682;2023-11-21T05:40:11;17.30;92.90
41116;DHT22;26861;51.824;4.682;2023-11-21T05:42:38;17.40;92.60
41116;DHT22;26861;51.824;4.682;2023-11-21T05:45:04;17.40;93.00
41116;DHT22;26861;51.824;4.682;2023-11-21T05:47:37;17.40;91.70
41116;DHT22;26861;51.824;4.682;2023-11-21T05:50:05;17.50;93.10
41116;DHT22;26861;51.824;4.682;2023-11-21T05:52:31;17.30;92.40
41116;DHT22;26861;51.824;4.682;2023-11-21T05:54:58;17.30;92.80
41116;DHT22;26861;51.824;4.682;2023-11-21T05:57:24;17.30;93.00
41116;DHT22;26861;51.824;4.682;2023-11-21T05:59:50;17.40;93.10
41116;DHT22;26861;51.824;4.682;2023-11-21T06:02:17;17.40;92.80
41116;DHT22;26861;51.824;4.682;2023-11-21T06:04:44;17.30;93.00
41116;DHT22;26861;51.824;4.682;2023-11-21T06:07:10;17.40;93.00
41116;DHT22;26861;51.824;4.682;2023-11-21T06:09:36;17.40;93.10
41116;DHT22;26861;51.824;4.682;2023-11-21T06:12:03;17.40;93.10
41116;DHT22;26861;51.824;4.682;2023-11-21T06:14:29;17.30;93.10
41116;DHT22;26861;51.824;4.682;2023-11-21T06:16:55;17.40;93.10
41116;DHT22;26861;51.824;4.682;2023-11-21T06:19:23;17.40;93.10
41116;DHT22;26861;51.824;4.682;2023-11-21T06:21:49;17.40;93.00
41116;DHT22;26861;51.824;4.682;2023-11-21T06:24:15;17.40;93.10
41116;DHT22;26861;51.824;4.682;2023-11-21T06:26:41;17.40;93.10
41116;DHT22;26861;51.824;4.682;2023-11-21T06:29:06;17.50;93.20
41116;DHT22;26861;51.824;4.682;2023-11-21T06:31:32;17.30;93.10
41116;DHT22;26861;51.824;4.682;2023-11-21T06:33:58;17.40;93.00
41116;DHT22;26861;51.824;4.682;2023-11-21T06:36:25;17.40;92.90
41116;DHT22;26861;51.824;4.682;2023-11-21T06:38:51;17.50;93.20
41116;DHT22;26861;51.824;4.682;2023-11-21T06:41:17;17.70;93.20
41116;DHT22;26861;51.824;4.682;2023-11-21T06:43:42;17.50;93.10
41116;DHT22;26861;51.824;4.682;2023-11-21T06:46:11;17.50;93.10
41116;DHT22;26861;51.824;4.682;2023-11-21T06:48:37;17.50;93.20
41116;DHT22;26861;51.824;4.682;2023-11-21T06:51:03;17.40;93.10
41116;DHT22;26861;51.824;4.682;2023-11-21T06:53:29;17.50;93.00
41116;DHT22;26861;51.824;4.682;2023-11-21T06:56:15;17.40;92.90
41116;DHT22;26861;51.824;4.682;2023-11-21T06:59:00;17.50;93.20
41116;DHT22;26861;51.824;4.682;2023-11-21T07:01:46;17.40;93.00
41116;DHT22;26861;51.824;4.682;2023-11-21T07:04:32;17.50;93.10
41116;DHT22;26861;51.824;4.682;2023-11-21T07:07:18;17.50;93.30
41116;DHT22;26861;51.824;4.682;2023-11-21T07:09:43;17.50;93.40
41116;DHT22;26861;51.824;4.682;2023-11-21T07:12:09;17.50;93.30
41116;DHT22;26861;51.824;4.682;2023-11-21T07:14:36;17.40;93.10
41116;DHT22;26861;51.824;4.682;2023-11-21T07:17:02;17.60;93.60
41116;DHT22;26861;51.824;4.682;2023-11-21T07:19:28;17.50;92.80
41116;DHT22;26861;51.824;4.682;2023-11-21T07:21:54;17.50;93.20
41116;DHT22;26861;51.824;4.682;2023-11-21T07:24:20;17.50;93.30
41116;DHT22;26861;51.824;4.682;2023-11-21T07:26:46;17.50;93.40
41116;DHT22;26861;51.824;4.682;2023-11-21T07:29:13;17.60;93.40
41116;DHT22;26861;51.824;4.682;2023-11-21T07:31:38;17.60;93.20
41116;DHT22;26861;51.824;4.682;2023-11-21T07:34:05;17.60;93.30
41116;DHT22;26861;51.824;4.682;2023-11-21T07:36:31;17.50;93.00
41116;DHT22;26861;51.824;4.682;2023-11-21T07:38:57;17.60;93.30
41116;DHT22;26861;51.824;4.682;2023-11-21T07:41:23;17.50;93.20
41116;DHT22;26861;51.824;4.682;2023-11-21T07:43:49;17.60;93.60
41116;DHT22;26861;51.824;4.682;2023-11-21T07:46:15;17.50;93.30
41116;DHT22;26861;51.824;4.682;2023-11-21T07:48:41;17.60;93.30
41116;DHT22;26861;51.824;4.682;2023-11-21T07:51:08;17.60;93.20
41116;DHT22;26861;51.824;4.682;2023-11-21T07:53:34;17.60;93.30
41116;DHT22;26861;51.824;4.682;2023-11-21T07:56:07;17.50;93.20
41116;DHT22;26861;51.824;4.682;2023-11-21T07:58:33;17.60;90.90
41116;DHT22;26861;51.824;4.682;2023-11-21T08:01:00;17.60;93.10
41116;DHT22;26861;51.824;4.682;2023-11-21T08:03:25;17.60;93.00
41116;DHT22;26861;51.824;4.682;2023-11-21T08:05:57;17.60;92.10
41116;DHT22;26861;51.824;4.682;2023-11-21T08:08:23;17.60;93.20
41116;DHT22;26861;51.824;4.682;2023-11-21T08:10:49;17.60;93.20
41116;DHT22;26861;51.824;4.682;2023-11-21T08:13:22;17.70;93.20
41116;DHT22;26861;51.824;4.682;2023-11-21T08:15:47;17.60;93.40
41116;DHT22;26861;51.824;4.682;2023-11-21T08:18:13;17.60;93.20
41116;DHT22;26861;51.824;4.682;2023-11-21T08:20:40;17.60;93.20
41116;DHT22;26861;51.824;4.682;2023-11-21T08:23:06;17.60;93.10
41116;DHT22;26861;51.824;4.682;2023-11-21T08:25:32;17.60;93.20
41116;DHT22;26861;51.824;4.682;2023-11-21T08:27:59;17.80;93.10
41116;DHT22;26861;51.824;4.682;2023-11-21T08:30:25;17.70;93.10
41116;DHT22;26861;51.824;4.682;2023-11-21T08:32:51;17.50;92.90
41116;DHT22;26861;51.824;4.682;2023-11-21T08:35:19;17.70;93.10
41116;DHT22;26861;51.824;4.682;2023-11-21T08:37:44;17.70;93.20
41116;DHT22;26861;51.824;4.682;2023-11-21T08:40:10;17.60;93.10
41116;DHT22;26861;51.824;4.682;2023-11-21T08:42:41;17.60;92.60
41116;DHT22;26861;51.824;4.682;2023-11-21T08:45:08;17.70;93.00
41116;DHT22;26861;51.824;4.682;2023-11-21T08:47:34;17.70;92.30
41116;DHT22;26861;51.824;4.682;2023-11-21T08:50:02;17.70;93.10
41116;DHT22;26861;51.824;4.682;2023-11-21T08:52:27;17.60;92.80
41116;DHT22;26861;51.824;4.682;2023-11-21T08:54:53;17.70;93.00
41116;DHT22;26861;51.824;4.682;2023-11-21T08:57:24;17.70;93.00
41116;DHT22;26861;51.824;4.682;2023-11-21T08:59:50;17.60;90.70
41116;DHT22;26861;51.824;4.682;2023-11-21T09:02:25;17.70;92.90
41116;DHT22;26861;51.824;4.682;2023-11-21T09:04:51;17.70;90.70
41116;DHT22;26861;51.824;4.682;2023-11-21T09:07:18;17.90;93.00
41116;DHT22;26861;51.824;4.682;2023-11-21T09:09:46;17.70;93.10
41116;DHT22;26861;51.824;4.682;2023-11-21T09:12:11;17.70;93.10
41116;DHT22;26861;51.824;4.682;2023-11-21T09:14:37;17.80;93.00
41116;DHT22;26861;51.824;4.682;2023-11-21T09:17:03;17.80;92.90
41116;DHT22;26861;51.824;4.682;2023-11-21T09:19:29;17.70;93.10
41116;DHT22;26861;51.824;4.682;2023-11-21T09:21:54;17.80;92.90
41116;DHT22;26861;51.824;4.682;2023-11-21T09:24:22;17.80;93.00
41116;DHT22;26861;51.824;4.682;2023-11-21T09:26:48;17.80;93.00
41116;DHT22;26861;51.824;4.682;2023-11-21T09:29:14;17.70;93.00
41116;DHT22;26861;51.824;4.682;2023-11-21T09:31:40;17.70;93.00
41116;DHT22;26861;51.824;4.682;2023-11-21T09:34:06;17.70;93.00
41116;DHT22;26861;51.824;4.682;2023-11-21T09:36:32;17.70;93.00
41116;DHT22;26861;51.824;4.682;2023-11-21T09:38:59;17.70;92.80
41116;DHT22;26861;51.824;4.682;2023-11-21T09:41:43;17.80;93.00
41116;DHT22;26861;51.824;4.682;2023-11-21T09:44:12;17.90;93.00
41116;DHT22;26861;51.824;4.682;2023-11-21T09:46:42;17.80;93.00
41116;DHT22;26861;51.824;4.682;2023-11-21T09:49:09;17.70;90.80
41116;DHT22;26861;51.824;4.682;2023-11-21T09:51:42;17.70;93.10
41116;DHT22;26861;51.824;4.682;2023-11-21T09:54:13;17.80;90.80
41116;DHT22;26861;51.824;4.682;2023-11-21T09:56:41;17.80;90.80
41116;DHT22;26861;51.824;4.682;2023-11-21T09:59:10;17.70;92.80
41116;DHT22;26861;51.824;4.682;2023-11-21T10:01:40;17.70;92.90
41116;DHT22;26861;51.824;4.682;2023-11-21T10:04:06;17.70;90.50
41116;DHT22;26861;51.824;4.682;2023-11-21T10:06:40;18.00;93.10
41116;DHT22;26861;51.824;4.682;2023-11-21T10:09:12;17.80;90.70
41116;DHT22;26861;51.824;4.682;2023-11-21T10:11:41;17.70;90.70
41116;DHT22;26861;51.824;4.682;2023-11-21T10:14:10;17.80;91.10
41116;DHT22;26861;51.824;4.682;2023-11-21T10:16:38;17.80;93.10
41116;DHT22;26861;51.824;4.682;2023-11-21T10:19:05;17.80;93.00
41116;DHT22;26861;51.824;4.682;2023-11-21T10:21:32;17.80;93.00
41116;DHT22;26861;51.824;4.682;2023-11-21T10:23:58;17.80;92.90
41116;DHT22;26861;51.824;4.682;2023-11-21T10:26:25;17.80;93.00
41116;DHT22;26861;51.824;4.682;2023-11-21T10:29:02;17.80;93.00
41116;DHT22;26861;51.824;4.682;2023-11-21T10:31:34;17.80;90.80
41116;DHT22;26861;51.824;4.682;2023-11-21T10:34:14;17.70;92.90
41116;DHT22;26861;51.824;4.682;2023-11-21T10:36:42;17.80;90.70
41116;DHT22;26861;51.824;4.682;2023-11-21T10:39:08;17.80;93.10
41116;DHT22;26861;51.824;4.682;2023-11-21T10:41:35;17.90;93.10
41116;DHT22;26861;51.824;4.682;2023-11-21T10:44:01;17.80;93.10
41116;DHT22;26861;51.824;4.682;2023-11-21T10:46:30;17.80;93.10
41116;DHT22;26861;51.824;4.682;2023-11-21T10:48:56;17.80;93.10
41116;DHT22;26861;51.824;4.682;2023-11-21T10:51:22;17.80;92.90
41116;DHT22;26861;51.824;4.682;2023-11-21T10:53:52;17.80;93.00
41116;DHT22;26861;51.824;4.682;2023-11-21T10:56:19;17.80;90.60
41116;DHT22;26861;51.824;4.682;2023-11-21T10:58:48;17.80;93.00
41116;DHT22;26861;51.824;4.682;2023-11-21T11:01:14;17.80;93.10
41116;DHT22;26861;51.824;4.682;2023-11-21T11:03:43;17.70;92.80
41116;DHT22;26861;51.824;4.682;2023-11-21T11:06:09;17.80;93.10
41116;DHT22;26861;51.824;4.682;2023-11-21T11:08:37;17.80;93.00
41116;DHT22;26861;51.824;4.682;2023-11-21T11:11:04;17.80;92.80
41116;DHT22;26861;51.824;4.682;2023-11-21T11:13:31;17.90;93.10
41116;DHT22;26861;51.824;4.682;2023-11-21T11:15:58;17.80;92.80
41116;DHT22;26861;51.824;4.682;2023-11-21T11:18:25;17.80;93.00
41116;DHT22;26861;51.824;4.682;2023-11-21T11:20:51;17.90;92.90
41116;DHT22;26861;51.824;4.682;2023-11-21T11:28:38;17.90;90.70
41116;DHT22;26861;51.824;4.682;2023-11-21T11:33:42;17.80;90.60
41116;DHT22;26861;51.824;4.682;2023-11-21T11:36:17;17.90;92.80
41116;DHT22;26861;51.824;4.682;2023-11-21T11:38:45;17.80;90.60
41116;DHT22;26861;51.824;4.682;2023-11-21T11:41:11;17.80;93.00
41116;DHT22;26861;51.824;4.682;2023-11-21T11:43:37;17.80;93.00
41116;DHT22;26861;51.824;4.682;2023-11-21T11:46:21;17.90;91.00
41116;DHT22;26861;51.824;4.682;2023-11-21T11:49:05;16.30;92.60
41116;DHT22;26861;51.824;4.682;2023-11-21T11:51:31;17.80;93.00
41116;DHT22;26861;51.824;4.682;2023-11-21T11:53:57;17.80;92.90
41116;DHT22;26861;51.824;4.682;2023-11-21T11:56:33;17.90;93.00
41116;DHT22;26861;51.824;4.682;2023-11-21T11:59:02;18.00;90.60
41116;DHT22;26861;51.824;4.682;2023-11-21T12:01:28;17.80;92.70
41116;DHT22;26861;51.824;4.682;2023-11-21T12:07:00;18.10;90.60
41116;DHT22;26861;51.824;4.682;2023-11-21T12:09:28;17.90;93.00
41116;DHT22;26861;51.824;4.682;2023-11-21T12:11:55;17.80;92.90
41116;DHT22;26861;51.824;4.682;2023-11-21T12:14:22;17.80;92.80
41116;DHT22;26861;51.824;4.682;2023-11-21T12:16:48;17.80;92.90
41116;DHT22;26861;51.824;4.682;2023-11-21T12:19:14;17.90;92.80
41116;DHT22;26861;51.824;4.682;2023-11-21T12:21:40;17.90;92.80
41116;DHT22;26861;51.824;4.682;2023-11-21T12:24:07;17.90;93.00
41116;DHT22;26861;51.824;4.682;2023-11-21T12:26:42;17.80;91.80
41116;DHT22;26861;51.824;4.682;2023-11-21T12:29:08;17.80;90.50
41116;DHT22;26861;51.824;4.682;2023-11-21T12:31:34;17.90;92.80
41116;DHT22;26861;51.824;4.682;2023-11-21T12:34:00;17.70;92.80
41116;DHT22;26861;51.824;4.682;2023-11-21T12:36:26;17.80;92.70
41116;DHT22;26861;51.824;4.682;2023-11-21T12:38:54;17.90;92.80
41116;DHT22;26861;51.824;4.682;2023-11-21T12:41:20;17.80;92.90
41116;DHT22;26861;51.824;4.682;2023-11-21T12:43:47;17.90;92.70
41116;DHT22;26861;51.824;4.682;2023-11-21T12:46:13;17.80;92.80
41116;DHT22;26861;51.824;4.682;2023-11-21T12:48:39;17.80;92.60
41116;DHT22;26861;51.824;4.682;2023-11-21T12:51:07;17.80;92.90
41116;DHT22;26861;51.824;4.682;2023-11-21T12:53:33;17.80;92.70
41116;DHT22;26861;51.824;4.682;2023-11-21T12:56:10;17.60;92.70
41116;DHT22;26861;51.824;4.682;2023-11-21T12:58:36;17.80;90.50
41116;DHT22;26861;51.824;4.682;2023-11-21T13:01:02;17.90;92.90
41116;DHT22;26861;51.824;4.682;2023-11-21T13:03:29;17.80;92.70
41116;DHT22;26861;51.824;4.682;2023-11-21T13:05:56;17.80;91.80
41116;DHT22;26861;51.824;4.682;2023-11-21T13:08:24;17.90;92.90
41116;DHT22;26861;51.824;4.682;2023-11-21T13:10:50;17.80;92.90
41116;DHT22;26861;51.824;4.682;2023-11-21T13:13:17;17.80;92.90
41116;DHT22;26861;51.824;4.682;2023-11-21T13:15:50;17.90;92.70
41116;DHT22;26861;51.824;4.682;2023-11-21T13:18:16;17.80;90.60
41116;DHT22;26861;51.824;4.682;2023-11-21T13:20:42;17.90;93.00
41116;DHT22;26861;51.824;4.682;2023-11-21T13:23:09;17.90;93.00
41116;DHT22;26861;51.824;4.682;2023-11-21T13:25:38;17.90;93.00
41116;DHT22;26861;51.824;4.682;2023-11-21T13:28:06;17.90;93.10
41116;DHT22;26861;51.824;4.682;2023-11-21T13:30:32;17.90;92.80
41116;DHT22;26861;51.824;4.682;2023-11-21T13:33:01;17.90;92.80
41116;DHT22;26861;51.824;4.682;2023-11-21T13:35:28;17.90;92.90
41116;DHT22;26861;51.824;4.682;2023-11-21T13:38:09;18.00;93.30
41116;DHT22;26861;51.824;4.682;2023-11-21T13:40:36;17.90;92.70
41116;DHT22;26861;51.824;4.682;2023-11-21T13:43:08;17.90;92.90
41116;DHT22;26861;51.824;4.682;2023-11-21T13:45:36;17.90;93.00
41116;DHT22;26861;51.824;4.682;2023-11-21T13:48:02;17.90;92.80
41116;DHT22;26861;51.824;4.682;2023-11-21T13:50:27;17.90;92.60
41116;DHT22;26861;51.824;4.682;2023-11-21T13:52:59;17.80;90.80
41116;DHT22;26861;51.824;4.682;2023-11-21T13:55:31;17.80;92.90
41116;DHT22;26861;51.824;4.682;2023-11-21T13:57:57;17.90;92.80
41116;DHT22;26861;51.824;4.682;2023-11-21T14:00:23;18.00;92.80
41116;DHT22;26861;51.824;4.682;2023-11-21T14:03:10;17.80;92.60
41116;DHT22;26861;51.824;4.682;2023-11-21T14:05:44;17.90;92.80
41116;DHT22;26861;51.824;4.682;2023-11-21T14:08:12;17.90;92.80
41116;DHT22;26861;51.824;4.682;2023-11-21T14:10:42;17.90;92.80
41116;DHT22;26861;51.824;4.682;2023-11-21T14:13:09;17.90;92.70
41116;DHT22;26861;51.824;4.682;2023-11-21T14:15:38;17.90;92.90
41116;DHT22;26861;51.824;4.682;2023-11-21T14:18:07;18.10;92.90
41116;DHT22;26861;51.824;4.682;2023-11-21T14:20:38;18.00;92.70
41116;DHT22;26861;51.824;4.682;2023-11-21T14:23:05;17.80;92.60
41116;DHT22;26861;51.824;4.682;2023-11-21T14:25:33;17.90;92.60
41116;DHT22;26861;51.824;4.682;2023-11-21T14:28:00;17.90;92.80
41116;DHT22;26861;51.824;4.682;2023-11-21T14:30:26;17.90;92.90
41116;DHT22;26861;51.824;4.682;2023-11-21T14:32:53;18.00;92.70
41116;DHT22;26861;51.824;4.682;2023-11-21T14:35:19;17.90;92.80
41116;DHT22;26861;51.824;4.682;2023-11-21T14:37:45;17.90;92.70
41116;DHT22;26861;51.824;4.682;2023-11-21T14:40:11;17.90;92.70
41116;DHT22;26861;51.824;4.682;2023-11-21T14:42:37;18.00;91.90
41116;DHT22;26861;51.824;4.682;2023-11-21T14:45:05;17.90;92.70
41116;DHT22;26861;51.824;4.682;2023-11-21T14:47:32;17.90;91.80
41116;DHT22;26861;51.824;4.682;2023-11-21T14:49:58;17.90;92.60
41116;DHT22;26861;51.824;4.682;2023-11-21T14:52:25;17.80;92.70
41116;DHT22;26861;51.824;4.682;2023-11-21T14:55:00;17.90;91.40
41116;DHT22;26861;51.824;4.682;2023-11-21T14:57:49;17.90;92.80
41116;DHT22;26861;51.824;4.682;2023-11-21T15:00:19;17.90;92.70
41116;DHT22;26861;51.824;4.682;2023-11-21T15:03:07;17.80;92.40
41116;DHT22;26861;51.824;4.682;2023-11-21T15:05:34;18.10;92.60
41116;DHT22;26861;51.824;4.682;2023-11-21T15:08:00;17.80;92.60
41116;DHT22;26861;51.824;4.682;2023-11-21T15:10:47;17.80;92.00
41116;DHT22;26861;51.824;4.682;2023-11-21T15:13:18;17.80;92.40
41116;DHT22;26861;51.824;4.682;2023-11-21T15:15:43;17.90;92.60
41116;DHT22;26861;51.824;4.682;2023-11-21T15:18:09;19.30;92.90
41116;DHT22;26861;51.824;4.682;2023-11-21T15:20:37;18.00;92.60
41116;DHT22;26861;51.824;4.682;2023-11-21T15:23:04;17.90;92.60
41116;DHT22;26861;51.824;4.682;2023-11-21T15:25:31;17.80;92.30
41116;DHT22;26861;51.824;4.682;2023-11-21T15:27:57;17.90;92.40
41116;DHT22;26861;51.824;4.682;2023-11-21T15:30:22;18.10;92.60
41116;DHT22;26861;51.824;4.682;2023-11-21T15:32:50;17.80;92.50
41116;DHT22;26861;51.824;4.682;2023-11-21T15:35:16;17.80;92.60
41116;DHT22;26861;51.824;4.682;2023-11-21T15:37:42;17.80;92.30
41116;DHT22;26861;51.824;4.682;2023-11-21T15:40:10;17.80;92.40
41116;DHT22;26861;51.824;4.682;2023-11-21T15:42:36;17.90;91.90
41116;DHT22;26861;51.824;4.682;2023-11-21T15:45:02;17.80;92.40
41116;DHT22;26861;51.824;4.682;2023-11-21T15:47:30;17.80;92.30